Latest Weather Observations for Ballera

IDQ60801

Issued at 7:22 am EST Monday 28 September 2020 (issued every 10 minutes, with the page automatically refreshed every 10 minutes)

About weather observations | Map of weather stations | Latest weather observations for QLD | Other Formats
Station Details ID: 045009 Name: BALLERA GAS FIELD Lat: -27.40 Lon: 141.81 Height: 114.5 m
Data from the previous 72 hours. | See also: Recent months at Ballera
Date/Time
EST
Temp
°C
App
Temp
°C
Dew
Point
°C
Rel
Hum
%
Delta-T
°C
Wind Press
QNH
hPa
Press
MSL
hPa
Rain since
9am
mm
Dir  Spd
km/h
Gust
km/h
Spd
kts
Gust
kts
28/07:00am 10.8 6.8 2.6 57 3.5 ESE 13 15 7 8 1022.4 1022.0 0.0
28/06:30am 9.3 4.9 2.6 63 2.9 ESE 15 17 8 9 1022.2 1021.8 0.0
28/06:00am 8.9 4.5 2.7 65 2.6 ESE 15 15 8 8 1021.9 1021.5 0.0
28/05:30am 9.3 4.8 2.4 62 2.9 ESE 15 17 8 9 1021.4 1021.0 0.0
28/05:00am 9.7 5.3 2.6 61 3.0 SE 15 19 8 10 1021.4 1021.0 0.0
28/04:30am 10.1 5.2 2.2 58 3.4 SE 17 19 9 10 1021.3 1020.9 0.0
28/04:00am 10.4 5.5 2.0 56 3.6 SE 17 20 9 11 1021.4 1021.0 0.0
28/03:30am 10.8 6.3 1.9 54 3.8 ESE 15 19 8 10 1021.0 1020.6 0.0
28/03:00am 11.1 6.1 1.6 52 4.0 ESE 17 19 9 10 1021.2 1020.8 0.0
28/02:30am 11.7 6.3 1.4 49 4.4 SE 19 22 10 12 1021.6 1021.2 0.0
28/02:00am 12.0 6.6 1.1 47 4.6 ESE 19 20 10 11 1021.8 1021.4 0.0
28/01:30am 12.7 7.2 0.8 44 5.0 SE 19 22 10 12 1022.3 1021.9 0.0
28/01:00am 12.4 6.9 0.8 45 4.9 SE 19 22 10 12 1022.8 1022.4 0.0
28/12:30am 12.6 6.9 0.7 44 5.0 SSE 20 22 11 12 1023.1 1022.7 0.0
28/12:00am 13.1 7.6 0.8 43 5.2 SE 19 22 10 12 1023.5 1023.2 0.0
 
Date/Time
EST
Temp
°C
App
Temp
°C
Dew
Point
°C
Rel
Hum
%
Delta-T
°C
Wind Press
QNH
hPa
Press
MSL
hPa
Rain since
9am
mm
Dir  Spd
km/h
Gust
km/h
Spd
kts
Gust
kts
27/11:30pm 13.3 7.8 0.7 42 5.3 SSE 19 22 10 12 1023.4 1023.1 0.0
27/11:00pm 13.8 8.0 0.1 39 5.7 SE 20 24 11 13 1023.5 1023.2 0.0
27/10:30pm 14.1 8.3 -0.4 37 6.1 SSE 20 24 11 13 1023.7 1023.4 0.0
27/10:00pm 14.8 8.6 -0.5 35 6.4 SSE 22 24 12 13 1023.8 1023.5 0.0
27/09:30pm 14.8 9.2 -0.1 36 6.3 SSE 19 22 10 12 1023.7 1023.4 0.0
27/09:00pm 15.1 9.5 -0.2 35 6.4 SSE 19 20 10 11 1023.4 1023.1 0.0
27/08:30pm 15.9 10.3 -0.3 33 6.9 SE 19 20 10 11 1023.0 1022.6 0.0
27/08:00pm 16.7 11.0 -0.5 31 7.3 SE 19 22 10 12 1022.5 1022.1 0.0
27/07:30pm 17.4 12.1 -0.8 29 7.8 SE 17 22 9 12 1022.1 1021.7 0.0
27/07:00pm 18.5 12.6 -0.8 27 8.3 SE 20 24 11 13 1021.6 1021.2 0.0
27/06:30pm 19.5 13.1 -1.6 24 9.0 ESE 22 26 12 14 1021.1 1020.7 0.0
27/06:00pm 20.5 14.0 -2.5 21 9.7 ESE 22 28 12 15 1020.8 1020.4 0.0
27/05:30pm 21.1 15.0 -2.7 20 10.1 SE 20 28 11 15 1020.6 1020.3 0.0
27/05:00pm 21.5 15.3 -3.1 19 10.4 SE 20 30 11 16 1020.5 1020.2 0.0
27/04:30pm 21.7 15.7 -2.9 19 10.5 SSE 19 24 10 13 1020.5 1020.2 0.0
27/04:00pm 21.8 15.8 -2.8 19 10.5 SE 19 28 10 15 1020.4 1020.1 0.0
27/03:30pm 21.4 15.7 -3.9 18 10.5 SE 17 24 9 13 1020.4 1020.1 0.0
27/03:00pm 21.5 15.9 -3.1 19 10.4 ESE 17 28 9 15 1020.9 1020.5 0.0
27/02:30pm 21.4 15.2 -3.1 19 10.4 SE 20 28 11 15 1021.1 1020.7 0.0
27/02:00pm 21.6 15.5 -2.3 20 10.2 SE 20 32 11 17 1021.3 1020.9 0.0
27/01:30pm 21.3 15.7 -2.5 20 10.2 E 17 28 9 15 1021.8 1021.4 0.0
27/01:00pm 21.0 15.6 -1.5 22 9.7 ESE 17 30 9 16 1022.3 1021.9 0.0
27/12:30pm 20.8 14.7 -2.3 21 9.9 ESE 20 30 11 16 1022.8 1022.4 0.0
27/12:00pm 19.8 13.3 -2.5 22 9.4 E 22 33 12 18 1023.4 1023.1 0.0
27/11:30am 19.6 13.1 -2.1 23 9.2 ESE 22 35 12 19 1023.9 1023.6 0.0
27/11:00am 19.5 13.3 -0.5 26 8.7 E 22 32 12 17 1024.4 1024.1 0.0
27/10:30am 18.3 12.3 -1.5 26 8.4 ESE 20 28 11 15 1024.8 1024.5 0.0
27/10:00am 18.4 12.3 0.1 29 8.0 E 22 30 12 16 1024.9 1024.6 0.0
27/09:30am 17.4 10.5 0.1 31 7.5 E 26 33 14 18 1024.9 1024.6 0.0
27/09:00am 15.9 9.6 1.6 38 6.3 E 24 28 13 15 1025.0 1024.7 0.0
27/08:30am 13.9 8.0 1.5 43 5.4 ESE 22 30 12 16 1024.8 1024.5 0.0
27/08:00am 12.7 6.8 1.7 47 4.7 SE 22 28 12 15 1024.6 1024.3 0.0
27/07:30am 11.5 6.0 0.9 48 4.4 SSE 19 24 10 13 1024.2 1023.9 0.0
27/07:00am 9.7 5.0 0.9 54 3.6 S 15 17 8 9 1024.0 1023.7 0.0
27/06:30am 8.4 3.3 0.6 58 3.1 S 17 19 9 10 1023.5 1023.2 0.0
27/06:00am 8.2 3.5 0.7 59 3.0 S 15 17 8 9 1022.9 1022.5 0.0
27/05:30am 8.5 3.0 0.7 58 3.2 S 19 20 10 11 1022.4 1022.0 0.0
27/05:00am 8.1 3.8 1.0 61 2.9 SSE 13 15 7 8 1022.3 1021.9 0.0
27/04:30am 8.0 4.4 0.3 58 3.1 SE 9 13 5 7 1022.3 1021.9 0.0
27/04:00am 9.3 5.6 -0.3 51 3.8 SE 9 11 5 6 1022.0 1021.6 0.0
27/03:30am 9.2 5.1 -0.1 52 3.7 SE 11 13 6 7 1021.7 1021.3 0.0
27/03:00am 10.0 6.3 0.1 50 4.0 SE 9 11 5 6 1021.3 1020.9 0.0
27/02:30am 10.1 6.0 -0.4 48 4.2 SE 11 11 6 6 1021.3 1020.9 0.0
27/02:00am 9.8 6.0 -0.4 49 4.1 SE 9 11 5 6 1021.5 1021.1 0.0
27/01:30am 9.8 5.7 -0.4 49 4.1 SE 11 13 6 7 1021.6 1021.2 0.0
27/01:00am 10.2 6.0 -0.6 47 4.3 SE 11 13 6 7 1021.8 1021.4 0.0
27/12:30am 10.3 6.2 -0.5 47 4.3 SE 11 13 6 7 1022.1 1021.7 0.0
27/12:00am 10.6 6.4 -0.8 45 4.5 SE 11 13 6 7 1022.2 1021.8 0.0
 
Date/Time
EST
Temp
°C
App
Temp
°C
Dew
Point
°C
Rel
Hum
%
Delta-T
°C
Wind Press
QNH
hPa
Press
MSL
hPa
Rain since
9am
mm
Dir  Spd
km/h
Gust
km/h
Spd
kts
Gust
kts
26/11:30pm 11.2 7.0 -0.9 43 4.9 SE 11 13 6 7 1022.0 1021.6 0.0
26/11:00pm 11.1 6.9 -1.0 43 4.8 SE 11 13 6 7 1022.1 1021.7 0.0
26/10:30pm 11.5 6.8 -1.6 40 5.2 SE 13 15 7 8 1022.3 1021.9 0.0
26/10:00pm 11.9 7.1 -2.3 37 5.5 SE 13 15 7 8 1022.4 1022.0 0.0
26/09:30pm 12.7 7.5 -2.7 34 6.0 SSE 15 17 8 9 1022.3 1021.9 0.0
26/09:00pm 13.3 7.7 -3.0 32 6.3 SSE 17 17 9 9 1022.0 1021.6 0.0
26/08:30pm 13.9 8.2 -3.4 30 6.7 SSE 17 20 9 11 1021.8 1021.4 0.0
26/08:00pm 14.5 8.9 -3.3 29 7.0 SSE 17 19 9 10 1021.4 1021.0 0.0
26/07:30pm 15.4 9.7 -4.0 26 7.6 SSE 17 20 9 11 1021.0 1020.6 0.0
26/07:00pm 16.2 10.5 -3.8 25 7.9 SSE 17 22 9 12 1020.5 1020.2 0.0
26/06:30pm 17.3 11.5 -4.6 22 8.6 S 17 19 9 10 1020.1 1019.8 0.0
26/06:00pm 18.1 11.9 -4.5 21 9.0 SSW 19 24 10 13 1019.6 1019.3 0.0
26/05:30pm 18.7 12.5 -4.7 20 9.3 S 19 24 10 13 1019.5 1019.2 0.0
26/05:00pm 18.8 12.9 -5.3 19 9.5 S 17 26 9 14 1019.3 1019.0 0.0
26/04:30pm 19.3 13.2 -4.2 20 9.5 S 19 26 10 14 1019.2 1018.9 0.0
26/04:00pm 18.8 13.1 -4.0 21 9.2 SSE 17 28 9 15 1019.3 1019.0 0.0
26/03:30pm 19.1 13.4 -3.7 21 9.3 SSW 17 22 9 12 1019.2 1018.9 0.0
26/03:00pm 19.0 13.7 -3.2 22 9.1 SSW 15 26 8 14 1019.4 1019.1 0.0
26/02:30pm 18.6 13.4 -2.9 23 8.9 SSW 15 24 8 13 1019.8 1019.5 0.0
26/02:00pm 19.3 14.4 -3.5 21 9.3 SSW 13 26 7 14 1020.2 1019.9 0.0
26/01:30pm 18.5 13.6 -3.0 23 8.9 SSE 13 22 7 12 1020.8 1020.4 0.0
26/01:00pm 17.5 12.3 -2.7 25 8.3 SSE 15 26 8 14 1021.3 1020.9 0.0
26/12:30pm 17.7 11.3 -2.0 26 8.2 S 22 33 12 18 1021.6 1021.2 0.0
26/12:00pm 17.7 12.3 -1.0 28 7.9 S 17 28 9 15 1022.1 1021.7 0.0
26/11:30am 16.3 10.9 -1.7 29 7.5 SSE 17 32 9 17 1022.7 1022.3 0.0
26/11:00am 16.1 11.1 -1.5 30 7.3 SSE 15 20 8 11 1022.9 1022.5 0.0
26/10:30am 15.3 9.9 -1.7 31 7.0 SE 17 24 9 13 1023.1 1022.7 0.0
26/10:00am 15.5 9.9 -0.3 34 6.7 SSE 19 28 10 15 1023.3 1023.0 0.0
26/09:30am 14.9 9.1 0.0 36 6.3 SSE 20 30 11 16 1023.3 1023.0 0.0
26/09:00am 14.6 9.0 1.2 40 5.8 SE 20 28 11 15 1023.1 1022.7 0.0
26/08:30am 13.5 7.3 2.1 46 5.0 SE 24 30 13 16 1022.4 1022.0 0.0
26/08:00am 12.4 6.8 1.4 47 4.7 SE 20 24 11 13 1022.0 1021.6 0.0
26/07:30am 11.0 5.9 0.7 49 4.3 SSE 17 20 9 11 1021.4 1021.0 0.0
26/07:00am 9.8 4.6 0.4 52 3.8 S 17 19 9 10 1020.9 1020.5 0.0
26/06:30am 9.3 3.7 0.0 52 3.7 S 19 22 10 12 1020.5 1020.2 0.0
26/06:00am 9.0 3.7 -0.3 52 3.7 S 17 20 9 11 1019.8 1019.5 0.0
26/05:30am 8.5 3.2 -0.8 52 3.6 S 17 19 9 10 1019.2 1018.9 0.0
26/05:00am 8.9 3.5 -1.2 49 3.9 S 17 19 9 10 1018.9 1018.6 0.0
26/04:30am 9.0 3.6 -1.4 48 4.0 S 17 20 9 11 1018.6 1018.3 0.0
26/04:00am 8.8 3.8 -1.3 49 3.9 S 15 19 8 10 1018.4 1018.1 0.0
26/03:30am 9.2 3.8 -1.5 47 4.1 S 17 19 9 10 1018.3 1018.0 0.0
26/03:00am 9.5 4.1 -1.5 46 4.3 S 17 19 9 10 1018.4 1018.1 0.0
26/02:30am 9.8 4.3 -1.9 44 4.5 S 17 19 9 10 1018.4 1018.1 0.0
26/02:00am 9.9 4.4 -2.1 43 4.6 S 17 19 9 10 1018.6 1018.3 0.0
26/01:30am 10.0 4.5 -2.0 43 4.6 S 17 19 9 10 1018.8 1018.5 0.0
26/01:00am 10.2 5.0 -2.4 41 4.8 S 15 15 8 8 1018.8 1018.5 0.0
26/12:30am 10.9 5.6 -3.2 37 5.3 S 15 17 8 9 1018.6 1018.3 0.0
26/12:00am 11.9 6.2 -3.4 34 5.8 SSW 17 20 9 11 1018.3 1018.0 0.0
 
Date/Time
EST
Temp
°C
App
Temp
°C
Dew
Point
°C
Rel
Hum
%
Delta-T
°C
Wind Press
QNH
hPa
Press
MSL
hPa
Rain since
9am
mm
Dir  Spd
km/h
Gust
km/h
Spd
kts
Gust
kts
25/11:30pm 11.8 5.8 -3.1 35 5.7 SSW 19 22 10 12 1018.1 1017.8 0.0
25/11:00pm 11.6 6.0 -2.9 36 5.6 SW 17 19 9 10 1017.9 1017.6 0.0
25/10:30pm 11.8 6.5 -3.5 34 5.8 SW 15 19 8 10 1017.7 1017.4 0.0
25/10:00pm 12.8 7.1 -3.5 32 6.3 SW 17 17 9 9 1017.7 1017.4 0.0
25/09:30pm 13.3 7.6 -3.4 31 6.5 SW 17 20 9 11 1017.5 1017.2 0.0
25/09:00pm 14.1 7.8 -4.1 28 7.0 SW 20 24 11 13 1017.3 1017.0 0.0
25/08:30pm 14.5 8.2 -3.8 28 7.1 SSW 20 24 11 13 1016.9 1016.6 0.0
25/08:00pm 15.4 8.0 -4.0 26 7.6 SSW 26 33 14 18 1016.5 1016.2 0.0
25/07:30pm 16.0 9.1 -3.0 27 7.6 SW 24 33 13 18 1016.1 1015.8 0.0
25/07:00pm 16.8 8.7 -2.8 26 8.0 SW 30 39 16 21 1015.6 1015.2 0.0
25/06:30pm 17.6 9.0 -2.6 25 8.3 SW 33 41 18 22 1015.4 1015.0 0.0
25/06:00pm 18.2 9.9 -1.6 26 8.4 WSW 32 39 17 21 1014.9 1014.5 0.0
25/05:30pm 18.8 10.4 -1.1 26 8.6 WSW 33 48 18 26 1014.5 1014.1 0.0
25/05:00pm 19.6 10.6 0.1 27 8.6 WSW 37 52 20 28 1013.9 1013.5 0.0
25/04:41pm 20.0 12.0 1.4 29 8.5 SW 33 52 18 28 1013.6 1013.2 0.0
25/04:30pm 19.8 11.0 1.3 29 8.4 WSW 37 48 20 26 1013.7 1013.3 0.0
25/04:06pm 20.7 12.5 2.5 30 8.5 WSW 35 54 19 29 1013.5 1013.1 0.0
25/04:00pm 20.4 11.3 1.8 29 8.6 WSW 39 54 21 29 1013.5 1013.1 0.0
25/03:38pm 20.6 12.1 2.9 31 8.4 WSW 37 56 20 30 1013.5 1013.1 0.0
25/03:30pm 20.5 11.3 3.3 32 8.2 SW 41 54 22 29 1013.5 1013.1 0.0
25/03:00pm 21.5 12.7 3.7 31 8.6 WSW 39 57 21 31 1013.4 1013.0 0.0
25/02:46pm 21.3 12.6 4.0 32 8.4 SW 39 57 21 31 1013.4 1013.0 0.0
25/02:30pm 21.4 11.6 3.1 30 8.7 WSW 44 61 24 33 1013.5 1013.1 0.0
25/02:04pm 21.5 12.3 3.7 31 8.6 SW 41 59 22 32 1013.6 1013.2 0.0
25/02:00pm 21.5 11.8 3.7 31 8.6 WSW 44 59 24 32 1013.6 1013.2 0.0
25/01:44pm 21.5 11.3 3.2 30 8.8 WSW 46 65 25 35 1013.7 1013.3 0.0
25/01:30pm 21.4 11.6 3.1 30 8.7 WSW 44 59 24 32 1013.7 1013.3 0.0
25/01:00pm 21.8 12.6 3.5 30 8.8 WSW 41 59 22 32 1013.8 1013.4 0.0
25/12:30pm 22.0 12.5 4.1 31 8.7 WSW 43 61 23 33 1013.8 1013.4 0.0
25/12:00pm 21.9 13.0 3.1 29 9.0 WSW 39 54 21 29 1013.8 1013.4 0.0
25/11:36am 22.7 13.3 2.2 26 9.7 WSW 41 61 22 33 1013.8 1013.4 0.0
25/11:30am 22.9 13.0 1.9 25 9.9 WSW 43 56 23 30 1013.9 1013.5 0.0
25/11:02am 22.7 12.8 1.7 25 9.9 WSW 43 61 23 33 1013.8 1013.4 0.0
25/11:00am 22.6 13.3 2.7 27 9.5 WSW 41 54 22 29 1013.8 1013.4 0.0
25/10:30am 22.6 13.3 2.7 27 9.5 W 41 56 22 30 1013.5 1013.1 0.0
25/10:00am 22.7 13.5 3.3 28 9.4 WNW 41 52 22 28 1013.7 1013.3 0.0
25/09:30am 22.0 13.1 3.2 29 9.0 WNW 39 50 21 27 1013.7 1013.3 0.0
25/09:00am 21.0 13.4 2.8 30 8.6 NW 32 39 17 21 1013.8 1013.4 0.0
25/08:30am 20.3 13.5 3.1 32 8.1 NW 28 35 15 19 1013.7 1013.3 0.0
25/08:00am 19.0 14.0 3.6 36 7.3 NW 19 28 10 15 1013.6 1013.2 0.0
25/07:30am 17.5 11.8 2.7 37 6.8 NNW 22 28 12 15 1013.1 1012.7 0.0

Other formats

Comma delimited format used in spreadsheet applications
http://www.bom.gov.au/fwo/IDQ60801/IDQ60801.95487.axf

JavaScript Object Notation format (JSON) in row-major order
http://www.bom.gov.au/fwo/IDQ60801/IDQ60801.95487.json

Data quality

Most of these data are generated automatically and are frequently updated. Quality checks on data are not normally performed. It is possible for incorrect values to appear. Refer to information at About Latest Weather Observations and please check the disclaimer before using these data.